sensor_id;sensor_type;location;lat;lon;timestamp;temperature;humidity
16116;DHT22;8162;47.104;15.432;2022-08-21T00:01:59;20.90;57.20
16116;DHT22;8162;47.104;15.432;2022-08-21T00:04:25;21.00;57.50
16116;DHT22;8162;47.104;15.432;2022-08-21T00:06:51;21.00;57.90
16116;DHT22;8162;47.104;15.432;2022-08-21T00:09:18;20.90;57.90
16116;DHT22;8162;47.104;15.432;2022-08-21T00:11:44;21.00;58.20
16116;DHT22;8162;47.104;15.432;2022-08-21T00:14:11;21.00;58.40
16116;DHT22;8162;47.104;15.432;2022-08-21T00:16:37;20.90;57.70
16116;DHT22;8162;47.104;15.432;2022-08-21T00:19:04;20.90;58.30
16116;DHT22;8162;47.104;15.432;2022-08-21T00:21:32;20.90;58.50
16116;DHT22;8162;47.104;15.432;2022-08-21T00:23:57;20.90;58.80
16116;DHT22;8162;47.104;15.432;2022-08-21T00:26:23;21.00;59.10
16116;DHT22;8162;47.104;15.432;2022-08-21T00:28:49;21.00;59.50
16116;DHT22;8162;47.104;15.432;2022-08-21T00:31:16;20.90;60.00
16116;DHT22;8162;47.104;15.432;2022-08-21T00:33:42;20.90;60.60
16116;DHT22;8162;47.104;15.432;2022-08-21T00:36:08;20.90;60.60
16116;DHT22;8162;47.104;15.432;2022-08-21T00:38:33;20.90;60.00
16116;DHT22;8162;47.104;15.432;2022-08-21T00:41:02;20.80;60.20
16116;DHT22;8162;47.104;15.432;2022-08-21T00:43:31;20.90;60.20
16116;DHT22;8162;47.104;15.432;2022-08-21T00:45:58;20.80;60.40
16116;DHT22;8162;47.104;15.432;2022-08-21T00:48:25;20.80;60.60
16116;DHT22;8162;47.104;15.432;2022-08-21T00:51:05;20.80;60.30
16116;DHT22;8162;47.104;15.432;2022-08-21T00:53:31;20.80;59.90
16116;DHT22;8162;47.104;15.432;2022-08-21T00:55:58;20.80;57.90
16116;DHT22;8162;47.104;15.432;2022-08-21T00:58:26;20.80;58.80
16116;DHT22;8162;47.104;15.432;2022-08-21T01:00:53;20.80;58.70
16116;DHT22;8162;47.104;15.432;2022-08-21T01:03:21;20.80;59.00
16116;DHT22;8162;47.104;15.432;2022-08-21T01:05:47;20.80;59.60
16116;DHT22;8162;47.104;15.432;2022-08-21T01:08:15;20.80;59.50
16116;DHT22;8162;47.104;15.432;2022-08-21T01:10:42;20.80;59.30
16116;DHT22;8162;47.104;15.432;2022-08-21T01:13:09;20.80;58.20
16116;DHT22;8162;47.104;15.432;2022-08-21T01:15:38;20.80;58.30
16116;DHT22;8162;47.104;15.432;2022-08-21T01:18:06;20.70;57.40
16116;DHT22;8162;47.104;15.432;2022-08-21T01:20:33;20.80;57.90
16116;DHT22;8162;47.104;15.432;2022-08-21T01:23:01;20.80;56.70
16116;DHT22;8162;47.104;15.432;2022-08-21T01:25:28;20.70;56.70
16116;DHT22;8162;47.104;15.432;2022-08-21T01:27:54;20.70;56.90
16116;DHT22;8162;47.104;15.432;2022-08-21T01:30:25;20.70;56.40
16116;DHT22;8162;47.104;15.432;2022-08-21T01:32:53;20.70;57.00
16116;DHT22;8162;47.104;15.432;2022-08-21T01:35:19;20.70;57.00
16116;DHT22;8162;47.104;15.432;2022-08-21T01:37:47;20.70;56.20
16116;DHT22;8162;47.104;15.432;2022-08-21T01:40:15;20.70;56.70
16116;DHT22;8162;47.104;15.432;2022-08-21T01:42:43;20.70;56.80
16116;DHT22;8162;47.104;15.432;2022-08-21T01:45:11;20.70;56.80
16116;DHT22;8162;47.104;15.432;2022-08-21T01:47:37;20.70;57.10
16116;DHT22;8162;47.104;15.432;2022-08-21T01:50:05;20.80;57.00
16116;DHT22;8162;47.104;15.432;2022-08-21T01:52:32;20.70;56.30
16116;DHT22;8162;47.104;15.432;2022-08-21T01:54:58;20.70;56.10
16116;DHT22;8162;47.104;15.432;2022-08-21T01:57:24;20.70;56.50
16116;DHT22;8162;47.104;15.432;2022-08-21T01:59:50;20.70;55.90
16116;DHT22;8162;47.104;15.432;2022-08-21T02:02:16;20.70;56.80
16116;DHT22;8162;47.104;15.432;2022-08-21T02:04:41;20.70;56.70
16116;DHT22;8162;47.104;15.432;2022-08-21T02:07:07;20.70;56.60
16116;DHT22;8162;47.104;15.432;2022-08-21T02:09:33;20.70;56.40
16116;DHT22;8162;47.104;15.432;2022-08-21T02:11:59;20.70;56.80
16116;DHT22;8162;47.104;15.432;2022-08-21T02:14:25;20.70;57.00
16116;DHT22;8162;47.104;15.432;2022-08-21T02:16:50;20.70;56.70
16116;DHT22;8162;47.104;15.432;2022-08-21T02:19:17;20.60;57.00
16116;DHT22;8162;47.104;15.432;2022-08-21T02:21:43;20.70;58.20
16116;DHT22;8162;47.104;15.432;2022-08-21T02:24:10;20.70;58.30
16116;DHT22;8162;47.104;15.432;2022-08-21T02:26:35;20.70;57.20
16116;DHT22;8162;47.104;15.432;2022-08-21T02:29:02;20.60;57.30
16116;DHT22;8162;47.104;15.432;2022-08-21T02:31:28;20.70;57.70
16116;DHT22;8162;47.104;15.432;2022-08-21T02:33:54;20.70;57.80
16116;DHT22;8162;47.104;15.432;2022-08-21T02:36:20;20.70;58.20
16116;DHT22;8162;47.104;15.432;2022-08-21T02:38:46;20.70;58.20
16116;DHT22;8162;47.104;15.432;2022-08-21T02:41:17;20.70;58.00
16116;DHT22;8162;47.104;15.432;2022-08-21T02:43:44;20.70;58.30
16116;DHT22;8162;47.104;15.432;2022-08-21T02:46:12;20.70;57.60
16116;DHT22;8162;47.104;15.432;2022-08-21T02:48:39;20.70;57.50
16116;DHT22;8162;47.104;15.432;2022-08-21T02:51:14;20.70;57.80
16116;DHT22;8162;47.104;15.432;2022-08-21T02:53:41;20.70;57.20
16116;DHT22;8162;47.104;15.432;2022-08-21T02:56:09;20.70;57.40
16116;DHT22;8162;47.104;15.432;2022-08-21T02:58:45;20.60;57.40
16116;DHT22;8162;47.104;15.432;2022-08-21T03:01:11;20.70;57.10
16116;DHT22;8162;47.104;15.432;2022-08-21T03:03:40;20.70;57.70
16116;DHT22;8162;47.104;15.432;2022-08-21T03:06:07;20.70;57.50
16116;DHT22;8162;47.104;15.432;2022-08-21T03:08:33;20.70;57.40
16116;DHT22;8162;47.104;15.432;2022-08-21T03:10:59;20.70;56.80
16116;DHT22;8162;47.104;15.432;2022-08-21T03:13:26;20.70;57.20
16116;DHT22;8162;47.104;15.432;2022-08-21T03:15:53;20.70;57.70
16116;DHT22;8162;47.104;15.432;2022-08-21T03:18:19;20.70;56.70
16116;DHT22;8162;47.104;15.432;2022-08-21T03:20:46;20.70;56.90
16116;DHT22;8162;47.104;15.432;2022-08-21T03:23:12;20.70;57.00
16116;DHT22;8162;47.104;15.432;2022-08-21T03:25:38;20.70;57.00
16116;DHT22;8162;47.104;15.432;2022-08-21T03:28:13;20.70;57.50
16116;DHT22;8162;47.104;15.432;2022-08-21T03:30:44;20.60;57.50
16116;DHT22;8162;47.104;15.432;2022-08-21T03:33:10;20.70;57.20
16116;DHT22;8162;47.104;15.432;2022-08-21T03:35:36;20.70;57.60
16116;DHT22;8162;47.104;15.432;2022-08-21T03:38:02;20.70;57.70
16116;DHT22;8162;47.104;15.432;2022-08-21T03:40:28;20.70;57.70
16116;DHT22;8162;47.104;15.432;2022-08-21T03:42:54;20.60;57.40
16116;DHT22;8162;47.104;15.432;2022-08-21T03:45:20;20.60;57.60
16116;DHT22;8162;47.104;15.432;2022-08-21T03:47:56;20.60;56.40
16116;DHT22;8162;47.104;15.432;2022-08-21T03:50:27;20.50;56.70
16116;DHT22;8162;47.104;15.432;2022-08-21T03:52:53;20.50;57.20
16116;DHT22;8162;47.104;15.432;2022-08-21T03:55:19;20.50;56.60
16116;DHT22;8162;47.104;15.432;2022-08-21T03:57:44;20.50;57.00
16116;DHT22;8162;47.104;15.432;2022-08-21T04:00:11;20.60;57.20
16116;DHT22;8162;47.104;15.432;2022-08-21T04:02:39;20.50;57.80
16116;DHT22;8162;47.104;15.432;2022-08-21T04:05:06;20.40;56.60
16116;DHT22;8162;47.104;15.432;2022-08-21T04:07:32;20.50;57.00
16116;DHT22;8162;47.104;15.432;2022-08-21T04:09:57;20.50;57.50
16116;DHT22;8162;47.104;15.432;2022-08-21T04:12:23;20.50;57.10
16116;DHT22;8162;47.104;15.432;2022-08-21T04:14:49;20.50;57.20
16116;DHT22;8162;47.104;15.432;2022-08-21T04:17:17;20.50;57.00
16116;DHT22;8162;47.104;15.432;2022-08-21T04:19:43;20.50;57.40
16116;DHT22;8162;47.104;15.432;2022-08-21T04:22:08;20.50;57.70
16116;DHT22;8162;47.104;15.432;2022-08-21T04:24:34;20.50;58.10
16116;DHT22;8162;47.104;15.432;2022-08-21T04:27:00;20.50;58.70
16116;DHT22;8162;47.104;15.432;2022-08-21T04:29:25;20.40;58.90
16116;DHT22;8162;47.104;15.432;2022-08-21T04:31:51;20.50;58.80
16116;DHT22;8162;47.104;15.432;2022-08-21T04:34:18;20.50;59.30
16116;DHT22;8162;47.104;15.432;2022-08-21T04:36:43;20.40;59.50
16116;DHT22;8162;47.104;15.432;2022-08-21T04:39:09;20.40;59.60
16116;DHT22;8162;47.104;15.432;2022-08-21T04:41:35;20.40;58.40
16116;DHT22;8162;47.104;15.432;2022-08-21T04:44:02;20.30;57.80
16116;DHT22;8162;47.104;15.432;2022-08-21T04:46:28;20.40;58.10
16116;DHT22;8162;47.104;15.432;2022-08-21T04:48:54;20.40;58.70
16116;DHT22;8162;47.104;15.432;2022-08-21T04:51:33;20.40;59.10
16116;DHT22;8162;47.104;15.432;2022-08-21T04:54:12;20.40;59.50
16116;DHT22;8162;47.104;15.432;2022-08-21T04:56:43;20.40;59.70
16116;DHT22;8162;47.104;15.432;2022-08-21T04:59:15;20.40;60.10
16116;DHT22;8162;47.104;15.432;2022-08-21T05:01:43;20.30;59.70
16116;DHT22;8162;47.104;15.432;2022-08-21T05:04:12;20.30;59.40
16116;DHT22;8162;47.104;15.432;2022-08-21T05:06:41;20.30;59.10
16116;DHT22;8162;47.104;15.432;2022-08-21T05:09:09;20.30;59.20
16116;DHT22;8162;47.104;15.432;2022-08-21T05:11:35;20.40;59.10
16116;DHT22;8162;47.104;15.432;2022-08-21T05:14:02;20.30;58.80
16116;DHT22;8162;47.104;15.432;2022-08-21T05:16:28;20.40;59.00
16116;DHT22;8162;47.104;15.432;2022-08-21T05:18:53;20.30;58.30
16116;DHT22;8162;47.104;15.432;2022-08-21T05:21:19;20.30;58.30
16116;DHT22;8162;47.104;15.432;2022-08-21T05:23:46;20.40;58.10
16116;DHT22;8162;47.104;15.432;2022-08-21T05:26:12;20.40;58.20
16116;DHT22;8162;47.104;15.432;2022-08-21T05:28:38;20.40;58.50
16116;DHT22;8162;47.104;15.432;2022-08-21T05:31:03;20.50;58.40
16116;DHT22;8162;47.104;15.432;2022-08-21T05:33:29;20.50;58.30
16116;DHT22;8162;47.104;15.432;2022-08-21T05:35:55;20.50;57.70
16116;DHT22;8162;47.104;15.432;2022-08-21T05:38:25;20.50;58.30
16116;DHT22;8162;47.104;15.432;2022-08-21T05:40:53;20.60;57.50
16116;DHT22;8162;47.104;15.432;2022-08-21T05:43:18;20.60;57.50
16116;DHT22;8162;47.104;15.432;2022-08-21T05:45:45;20.60;58.10
16116;DHT22;8162;47.104;15.432;2022-08-21T05:48:19;20.70;58.20
16116;DHT22;8162;47.104;15.432;2022-08-21T05:50:46;20.70;58.10
16116;DHT22;8162;47.104;15.432;2022-08-21T05:53:14;20.70;58.50
16116;DHT22;8162;47.104;15.432;2022-08-21T05:55:40;20.70;58.80
16116;DHT22;8162;47.104;15.432;2022-08-21T05:58:07;20.80;59.20
16116;DHT22;8162;47.104;15.432;2022-08-21T06:00:32;20.80;59.50
16116;DHT22;8162;47.104;15.432;2022-08-21T06:02:58;20.80;59.40
16116;DHT22;8162;47.104;15.432;2022-08-21T06:05:24;20.80;59.80
16116;DHT22;8162;47.104;15.432;2022-08-21T06:07:50;20.80;60.80
16116;DHT22;8162;47.104;15.432;2022-08-21T06:10:17;20.90;61.00
16116;DHT22;8162;47.104;15.432;2022-08-21T06:12:42;20.90;61.30
16116;DHT22;8162;47.104;15.432;2022-08-21T06:15:08;20.90;61.40
16116;DHT22;8162;47.104;15.432;2022-08-21T06:17:34;20.90;61.70
16116;DHT22;8162;47.104;15.432;2022-08-21T06:20:00;20.90;61.40
16116;DHT22;8162;47.104;15.432;2022-08-21T06:22:25;21.00;62.60
16116;DHT22;8162;47.104;15.432;2022-08-21T06:24:51;20.90;63.40
16116;DHT22;8162;47.104;15.432;2022-08-21T06:27:17;21.00;63.10
16116;DHT22;8162;47.104;15.432;2022-08-21T06:29:43;21.00;62.30
16116;DHT22;8162;47.104;15.432;2022-08-21T06:32:13;21.00;61.70
16116;DHT22;8162;47.104;15.432;2022-08-21T06:34:40;21.00;61.90
16116;DHT22;8162;47.104;15.432;2022-08-21T06:37:06;21.00;63.30
16116;DHT22;8162;47.104;15.432;2022-08-21T06:39:32;21.00;62.40
16116;DHT22;8162;47.104;15.432;2022-08-21T06:41:58;21.00;62.60
16116;DHT22;8162;47.104;15.432;2022-08-21T06:44:24;21.10;62.90
16116;DHT22;8162;47.104;15.432;2022-08-21T06:46:49;21.00;62.10
16116;DHT22;8162;47.104;15.432;2022-08-21T06:49:15;21.00;62.10
16116;DHT22;8162;47.104;15.432;2022-08-21T06:51:41;21.10;61.20
16116;DHT22;8162;47.104;15.432;2022-08-21T06:54:06;21.00;61.40
16116;DHT22;8162;47.104;15.432;2022-08-21T06:56:32;21.00;61.60
16116;DHT22;8162;47.104;15.432;2022-08-21T06:58:58;21.00;61.40
16116;DHT22;8162;47.104;15.432;2022-08-21T07:01:26;21.00;60.70
16116;DHT22;8162;47.104;15.432;2022-08-21T07:03:52;21.10;61.20
16116;DHT22;8162;47.104;15.432;2022-08-21T07:06:17;21.10;63.10
16116;DHT22;8162;47.104;15.432;2022-08-21T07:08:43;21.10;62.70
16116;DHT22;8162;47.104;15.432;2022-08-21T07:11:20;21.00;62.20
16116;DHT22;8162;47.104;15.432;2022-08-21T07:13:47;21.10;61.80
16116;DHT22;8162;47.104;15.432;2022-08-21T07:16:13;21.10;61.70
16116;DHT22;8162;47.104;15.432;2022-08-21T07:18:39;21.00;61.10
16116;DHT22;8162;47.104;15.432;2022-08-21T07:21:06;21.00;61.40
16116;DHT22;8162;47.104;15.432;2022-08-21T07:23:35;21.00;62.20
16116;DHT22;8162;47.104;15.432;2022-08-21T07:26:02;21.10;62.50
16116;DHT22;8162;47.104;15.432;2022-08-21T07:28:29;21.10;62.80
16116;DHT22;8162;47.104;15.432;2022-08-21T07:30:56;21.10;63.00
16116;DHT22;8162;47.104;15.432;2022-08-21T07:33:23;21.10;63.60
16116;DHT22;8162;47.104;15.432;2022-08-21T07:35:49;21.10;63.70
16116;DHT22;8162;47.104;15.432;2022-08-21T07:38:15;21.10;63.80
16116;DHT22;8162;47.104;15.432;2022-08-21T07:40:41;21.00;63.90
16116;DHT22;8162;47.104;15.432;2022-08-21T07:43:07;21.10;63.70
16116;DHT22;8162;47.104;15.432;2022-08-21T07:45:33;21.10;64.10
16116;DHT22;8162;47.104;15.432;2022-08-21T07:47:59;21.10;64.40
16116;DHT22;8162;47.104;15.432;2022-08-21T07:50:25;21.00;64.00
16116;DHT22;8162;47.104;15.432;2022-08-21T07:52:51;21.10;64.40
16116;DHT22;8162;47.104;15.432;2022-08-21T07:55:18;21.10;64.70
16116;DHT22;8162;47.104;15.432;2022-08-21T07:57:45;21.10;64.90
16116;DHT22;8162;47.104;15.432;2022-08-21T08:00:15;21.10;65.40
16116;DHT22;8162;47.104;15.432;2022-08-21T08:02:44;21.00;65.70
16116;DHT22;8162;47.104;15.432;2022-08-21T08:05:11;21.10;66.20
16116;DHT22;8162;47.104;15.432;2022-08-21T08:07:38;21.10;67.10
16116;DHT22;8162;47.104;15.432;2022-08-21T08:10:05;21.20;67.00
16116;DHT22;8162;47.104;15.432;2022-08-21T08:12:33;21.10;67.20
16116;DHT22;8162;47.104;15.432;2022-08-21T08:14:59;21.10;67.50
16116;DHT22;8162;47.104;15.432;2022-08-21T08:17:26;21.10;67.70
16116;DHT22;8162;47.104;15.432;2022-08-21T08:19:53;21.10;67.30
16116;DHT22;8162;47.104;15.432;2022-08-21T08:22:21;21.10;67.90
16116;DHT22;8162;47.104;15.432;2022-08-21T08:24:51;21.10;67.70
16116;DHT22;8162;47.104;15.432;2022-08-21T08:27:17;21.20;67.60
16116;DHT22;8162;47.104;15.432;2022-08-21T08:29:44;21.20;67.90
16116;DHT22;8162;47.104;15.432;2022-08-21T08:32:10;21.20;68.00
16116;DHT22;8162;47.104;15.432;2022-08-21T08:34:37;21.20;69.10
16116;DHT22;8162;47.104;15.432;2022-08-21T08:37:03;21.20;69.20
16116;DHT22;8162;47.104;15.432;2022-08-21T08:39:29;21.20;68.50
16116;DHT22;8162;47.104;15.432;2022-08-21T08:42:09;21.20;68.60
16116;DHT22;8162;47.104;15.432;2022-08-21T08:44:37;21.20;69.00
16116;DHT22;8162;47.104;15.432;2022-08-21T08:47:03;21.20;68.60
16116;DHT22;8162;47.104;15.432;2022-08-21T08:49:55;21.20;69.40
16116;DHT22;8162;47.104;15.432;2022-08-21T08:52:33;21.20;69.00
16116;DHT22;8162;47.104;15.432;2022-08-21T08:55:15;21.20;69.30
16116;DHT22;8162;47.104;15.432;2022-08-21T08:57:45;21.20;69.90
16116;DHT22;8162;47.104;15.432;2022-08-21T09:00:14;21.20;69.80
16116;DHT22;8162;47.104;15.432;2022-08-21T09:02:42;21.20;69.50
16116;DHT22;8162;47.104;15.432;2022-08-21T09:05:19;21.20;69.90
16116;DHT22;8162;47.104;15.432;2022-08-21T09:10:45;21.30;71.10
16116;DHT22;8162;47.104;15.432;2022-08-21T09:27:07;21.30;70.50
16116;DHT22;8162;47.104;15.432;2022-08-21T09:29:36;21.30;70.50
16116;DHT22;8162;47.104;15.432;2022-08-21T09:32:05;21.30;70.20
16116;DHT22;8162;47.104;15.432;2022-08-21T09:34:32;21.20;69.70
16116;DHT22;8162;47.104;15.432;2022-08-21T09:36:58;21.20;69.40
16116;DHT22;8162;47.104;15.432;2022-08-21T09:39:27;21.20;69.10
16116;DHT22;8162;47.104;15.432;2022-08-21T09:42:04;21.20;69.10
16116;DHT22;8162;47.104;15.432;2022-08-21T09:44:35;21.20;68.60
16116;DHT22;8162;47.104;15.432;2022-08-21T09:47:05;21.20;68.70
16116;DHT22;8162;47.104;15.432;2022-08-21T09:49:33;21.20;69.20
16116;DHT22;8162;47.104;15.432;2022-08-21T09:52:01;21.20;66.30
16116;DHT22;8162;47.104;15.432;2022-08-21T09:54:39;21.20;67.20
16116;DHT22;8162;47.104;15.432;2022-08-21T09:59:54;21.30;67.40
16116;DHT22;8162;47.104;15.432;2022-08-21T10:02:32;21.30;66.90
16116;DHT22;8162;47.104;15.432;2022-08-21T10:05:08;21.30;66.70
16116;DHT22;8162;47.104;15.432;2022-08-21T10:07:40;21.30;63.30
16116;DHT22;8162;47.104;15.432;2022-08-21T10:10:18;21.40;65.30
16116;DHT22;8162;47.104;15.432;2022-08-21T10:15:47;21.50;65.40
16116;DHT22;8162;47.104;15.432;2022-08-21T10:21:23;21.60;65.80
16116;DHT22;8162;47.104;15.432;2022-08-21T10:24:17;21.70;65.50
16116;DHT22;8162;47.104;15.432;2022-08-21T10:29:55;21.80;66.40
16116;DHT22;8162;47.104;15.432;2022-08-21T10:32:27;21.90;66.10
16116;DHT22;8162;47.104;15.432;2022-08-21T10:35:08;22.00;66.60
16116;DHT22;8162;47.104;15.432;2022-08-21T10:56:41;22.30;63.40
16116;DHT22;8162;47.104;15.432;2022-08-21T10:59:28;22.30;62.50
16116;DHT22;8162;47.104;15.432;2022-08-21T11:10:25;22.60;59.60
16116;DHT22;8162;47.104;15.432;2022-08-21T11:13:00;22.70;60.60
16116;DHT22;8162;47.104;15.432;2022-08-21T11:15:34;22.70;60.00
16116;DHT22;8162;47.104;15.432;2022-08-21T11:23:37;22.80;60.50
16116;DHT22;8162;47.104;15.432;2022-08-21T11:26:32;22.80;61.20
16116;DHT22;8162;47.104;15.432;2022-08-21T11:29:08;22.80;61.20
16116;DHT22;8162;47.104;15.432;2022-08-21T11:31:51;22.80;57.10
16116;DHT22;8162;47.104;15.432;2022-08-21T11:42:43;22.80;57.40
16116;DHT22;8162;47.104;15.432;2022-08-21T11:45:52;22.80;57.20
16116;DHT22;8162;47.104;15.432;2022-08-21T11:50:51;23.00;57.80
16116;DHT22;8162;47.104;15.432;2022-08-21T11:53:37;23.00;56.50
16116;DHT22;8162;47.104;15.432;2022-08-21T11:56:12;23.10;56.10
16116;DHT22;8162;47.104;15.432;2022-08-21T11:58:54;23.20;56.70
16116;DHT22;8162;47.104;15.432;2022-08-21T12:01:48;23.30;58.30
16116;DHT22;8162;47.104;15.432;2022-08-21T12:04:28;23.30;59.50
16116;DHT22;8162;47.104;15.432;2022-08-21T12:06:55;23.30;57.30
16116;DHT22;8162;47.104;15.432;2022-08-21T12:12:10;23.40;57.90
16116;DHT22;8162;47.104;15.432;2022-08-21T12:14:47;23.40;59.10
16116;DHT22;8162;47.104;15.432;2022-08-21T12:17:38;23.40;57.30
16116;DHT22;8162;47.104;15.432;2022-08-21T12:25:46;23.30;58.40
16116;DHT22;8162;47.104;15.432;2022-08-21T12:28:15;23.30;57.70
16116;DHT22;8162;47.104;15.432;2022-08-21T12:30:46;23.30;58.20
16116;DHT22;8162;47.104;15.432;2022-08-21T12:33:32;23.30;59.60
16116;DHT22;8162;47.104;15.432;2022-08-21T12:36:12;23.30;59.30
16116;DHT22;8162;47.104;15.432;2022-08-21T12:41:16;23.30;58.90
16116;DHT22;8162;47.104;15.432;2022-08-21T12:43:51;23.30;58.90
16116;DHT22;8162;47.104;15.432;2022-08-21T12:51:57;23.30;57.70
16116;DHT22;8162;47.104;15.432;2022-08-21T12:54:29;23.30;57.00
16116;DHT22;8162;47.104;15.432;2022-08-21T12:56:58;23.30;56.70
16116;DHT22;8162;47.104;15.432;2022-08-21T12:59:24;23.30;55.90
16116;DHT22;8162;47.104;15.432;2022-08-21T13:01:50;23.30;57.00
16116;DHT22;8162;47.104;15.432;2022-08-21T13:04:21;23.30;56.10
16116;DHT22;8162;47.104;15.432;2022-08-21T13:06:49;23.30;54.50
16116;DHT22;8162;47.104;15.432;2022-08-21T13:09:19;23.30;54.50
16116;DHT22;8162;47.104;15.432;2022-08-21T13:11:48;23.40;54.50
16116;DHT22;8162;47.104;15.432;2022-08-21T13:16:55;23.40;54.10
16116;DHT22;8162;47.104;15.432;2022-08-21T13:19:22;23.50;54.40
16116;DHT22;8162;47.104;15.432;2022-08-21T13:21:49;23.40;55.20
16116;DHT22;8162;47.104;15.432;2022-08-21T13:26:42;23.30;53.90
16116;DHT22;8162;47.104;15.432;2022-08-21T13:29:10;23.30;53.30
16116;DHT22;8162;47.104;15.432;2022-08-21T13:31:37;23.30;53.20
16116;DHT22;8162;47.104;15.432;2022-08-21T13:34:05;23.20;53.60
16116;DHT22;8162;47.104;15.432;2022-08-21T13:36:36;23.20;53.90
16116;DHT22;8162;47.104;15.432;2022-08-21T13:39:04;23.20;54.30
16116;DHT22;8162;47.104;15.432;2022-08-21T13:41:35;23.10;54.60
16116;DHT22;8162;47.104;15.432;2022-08-21T13:46:33;23.10;53.70
16116;DHT22;8162;47.104;15.432;2022-08-21T13:49:02;23.00;54.40
16116;DHT22;8162;47.104;15.432;2022-08-21T13:51:29;23.00;54.40
16116;DHT22;8162;47.104;15.432;2022-08-21T13:53:55;23.00;55.10
16116;DHT22;8162;47.104;15.432;2022-08-21T13:58:52;23.00;54.50
16116;DHT22;8162;47.104;15.432;2022-08-21T14:01:19;23.00;55.30
16116;DHT22;8162;47.104;15.432;2022-08-21T14:03:48;23.00;55.00
16116;DHT22;8162;47.104;15.432;2022-08-21T14:06:17;22.90;55.20
16116;DHT22;8162;47.104;15.432;2022-08-21T14:08:50;22.90;54.20
16116;DHT22;8162;47.104;15.432;2022-08-21T14:11:16;23.00;55.00
16116;DHT22;8162;47.104;15.432;2022-08-21T14:13:46;23.00;55.70
16116;DHT22;8162;47.104;15.432;2022-08-21T14:16:19;23.00;55.20
16116;DHT22;8162;47.104;15.432;2022-08-21T14:21:31;22.90;53.50
16116;DHT22;8162;47.104;15.432;2022-08-21T14:26:29;22.90;53.60
16116;DHT22;8162;47.104;15.432;2022-08-21T14:28:59;22.90;54.30
16116;DHT22;8162;47.104;15.432;2022-08-21T14:31:30;23.00;55.00
16116;DHT22;8162;47.104;15.432;2022-08-21T14:33:57;23.00;55.80
16116;DHT22;8162;47.104;15.432;2022-08-21T14:36:23;22.90;53.90
16116;DHT22;8162;47.104;15.432;2022-08-21T14:38:49;22.90;54.30
16116;DHT22;8162;47.104;15.432;2022-08-21T14:41:21;23.00;55.10
16116;DHT22;8162;47.104;15.432;2022-08-21T14:43:48;23.10;53.60
16116;DHT22;8162;47.104;15.432;2022-08-21T14:46:20;23.10;51.50
16116;DHT22;8162;47.104;15.432;2022-08-21T14:48:46;23.20;52.40
16116;DHT22;8162;47.104;15.432;2022-08-21T14:51:13;23.20;52.40
16116;DHT22;8162;47.104;15.432;2022-08-21T14:53:39;23.30;53.60
16116;DHT22;8162;47.104;15.432;2022-08-21T14:56:04;23.20;54.20
16116;DHT22;8162;47.104;15.432;2022-08-21T14:58:31;23.30;54.00
16116;DHT22;8162;47.104;15.432;2022-08-21T15:00:57;23.20;52.20
16116;DHT22;8162;47.104;15.432;2022-08-21T15:03:24;23.20;52.30
16116;DHT22;8162;47.104;15.432;2022-08-21T15:05:51;23.20;51.90
16116;DHT22;8162;47.104;15.432;2022-08-21T15:08:17;23.20;49.80
16116;DHT22;8162;47.104;15.432;2022-08-21T15:10:43;23.20;50.00
16116;DHT22;8162;47.104;15.432;2022-08-21T15:13:09;23.20;49.70
16116;DHT22;8162;47.104;15.432;2022-08-21T15:15:43;23.20;49.20
16116;DHT22;8162;47.104;15.432;2022-08-21T15:18:09;23.20;49.70
16116;DHT22;8162;47.104;15.432;2022-08-21T15:20:36;23.10;49.10
16116;DHT22;8162;47.104;15.432;2022-08-21T15:23:03;23.20;50.20
16116;DHT22;8162;47.104;15.432;2022-08-21T15:25:29;23.20;50.30
16116;DHT22;8162;47.104;15.432;2022-08-21T15:27:55;23.20;50.20
16116;DHT22;8162;47.104;15.432;2022-08-21T15:30:22;23.20;50.80
16116;DHT22;8162;47.104;15.432;2022-08-21T15:32:48;23.20;48.60
16116;DHT22;8162;47.104;15.432;2022-08-21T15:35:13;23.20;49.00
16116;DHT22;8162;47.104;15.432;2022-08-21T15:37:39;23.20;49.20
16116;DHT22;8162;47.104;15.432;2022-08-21T15:40:06;23.20;49.10
16116;DHT22;8162;47.104;15.432;2022-08-21T15:42:33;23.20;49.30
16116;DHT22;8162;47.104;15.432;2022-08-21T15:44:59;23.20;48.90
16116;DHT22;8162;47.104;15.432;2022-08-21T15:47:30;23.10;48.90
16116;DHT22;8162;47.104;15.432;2022-08-21T15:49:56;23.10;47.60
16116;DHT22;8162;47.104;15.432;2022-08-21T15:52:23;23.10;48.30
16116;DHT22;8162;47.104;15.432;2022-08-21T15:54:49;23.10;49.40
16116;DHT22;8162;47.104;15.432;2022-08-21T15:57:18;23.10;48.40
16116;DHT22;8162;47.104;15.432;2022-08-21T15:59:50;23.10;48.80
16116;DHT22;8162;47.104;15.432;2022-08-21T16:02:21;23.10;48.90
16116;DHT22;8162;47.104;15.432;2022-08-21T16:04:48;23.00;48.70
16116;DHT22;8162;47.104;15.432;2022-08-21T16:07:14;23.00;48.30
16116;DHT22;8162;47.104;15.432;2022-08-21T16:09:40;23.00;49.60
16116;DHT22;8162;47.104;15.432;2022-08-21T16:12:07;23.10;50.00
16116;DHT22;8162;47.104;15.432;2022-08-21T16:14:35;23.00;49.00
16116;DHT22;8162;47.104;15.432;2022-08-21T16:17:08;23.00;49.30
16116;DHT22;8162;47.104;15.432;2022-08-21T16:19:34;23.00;50.00
16116;DHT22;8162;47.104;15.432;2022-08-21T16:22:01;23.00;50.40
16116;DHT22;8162;47.104;15.432;2022-08-21T16:24:27;23.00;51.00
16116;DHT22;8162;47.104;15.432;2022-08-21T16:26:53;23.00;51.20
16116;DHT22;8162;47.104;15.432;2022-08-21T16:29:19;23.00;51.50
16116;DHT22;8162;47.104;15.432;2022-08-21T16:31:47;22.90;51.40
16116;DHT22;8162;47.104;15.432;2022-08-21T16:34:17;22.90;51.70
16116;DHT22;8162;47.104;15.432;2022-08-21T16:36:45;22.90;51.30
16116;DHT22;8162;47.104;15.432;2022-08-21T16:39:11;22.80;50.70
16116;DHT22;8162;47.104;15.432;2022-08-21T16:41:36;22.80;51.50
16116;DHT22;8162;47.104;15.432;2022-08-21T16:44:04;22.80;52.00
16116;DHT22;8162;47.104;15.432;2022-08-21T16:46:34;22.80;52.60
16116;DHT22;8162;47.104;15.432;2022-08-21T16:49:01;22.80;53.20
16116;DHT22;8162;47.104;15.432;2022-08-21T16:51:27;22.70;53.10
16116;DHT22;8162;47.104;15.432;2022-08-21T16:53:58;22.70;53.10
16116;DHT22;8162;47.104;15.432;2022-08-21T16:56:24;22.70;52.40
16116;DHT22;8162;47.104;15.432;2022-08-21T16:58:52;22.60;52.50
16116;DHT22;8162;47.104;15.432;2022-08-21T17:01:21;22.60;52.80
16116;DHT22;8162;47.104;15.432;2022-08-21T17:03:49;22.60;53.00
16116;DHT22;8162;47.104;15.432;2022-08-21T17:06:16;22.60;52.90
16116;DHT22;8162;47.104;15.432;2022-08-21T17:08:42;22.60;53.10
16116;DHT22;8162;47.104;15.432;2022-08-21T17:11:20;22.50;52.90
16116;DHT22;8162;47.104;15.432;2022-08-21T17:13:46;22.50;53.10
16116;DHT22;8162;47.104;15.432;2022-08-21T17:16:12;22.50;52.90
16116;DHT22;8162;47.104;15.432;2022-08-21T17:18:38;22.50;53.00
16116;DHT22;8162;47.104;15.432;2022-08-21T17:21:04;22.40;53.10
16116;DHT22;8162;47.104;15.432;2022-08-21T17:23:30;22.40;52.90